Marietje Marsilla — PCIE — position and weather

sailwx.info

Track history (hours):
 
Tides and Currents Weather Stations Pressure Air Temp Water Temp Dewpoint Dewpoint Depression Visibility Wind Speed Wind Dir Waves Ship Positions

Marietje Marsilla

Last reported at 2018-Jan-22 06:19 UTC. Time now 2018-Jan-22 06:39 UTC.
Position N 53°11' E 005°26'.

Length 126 m; draft 4.7 m.

Type: Cargo ship. MMSI: 246754000.

Date/timePositionNaut miles runAvg speedWind from/ knotsBaromVisibWave heightAir tempDewpointWater temp
2018-Jan-22 06:19N 53°11' E 005°26'0 0.0
2018-Jan-22 05:55N 53°11' E 005°26'0 0.0
2018-Jan-22 05:28N 53°11' E 005°26'0 0.0
2018-Jan-22 04:58N 53°11' E 005°26'0 0.0
2018-Jan-22 04:28N 53°11' E 005°26'0 0.0
2018-Jan-22 03:58N 53°11' E 005°26'0 0.0
2018-Jan-22 03:28N 53°11' E 005°26'0 0.0
2018-Jan-22 02:58N 53°11' E 005°26'0 0.0
2018-Jan-22 02:28N 53°11' E 005°26'0 0.0
2018-Jan-22 01:58N 53°11' E 005°26'0 0.0
2018-Jan-22 01:19N 53°11' E 005°26'0 0.0
2018-Jan-22 00:58N 53°11' E 005°26'0 0.0
2018-Jan-22 00:28N 53°11' E 005°26'0 0.0
2018-Jan-21 23:55N 53°11' E 005°26'0 0.0
2018-Jan-21 23:28N 53°11' E 005°26'0 0.0
2018-Jan-21 22:58N 53°11' E 005°26'0 0.0
2018-Jan-21 22:28N 53°11' E 005°26'0 0.0
2018-Jan-21 21:58N 53°11' E 005°26'0 0.0
2018-Jan-21 21:28N 53°11' E 005°26'0 0.0
2018-Jan-21 20:58N 53°11' E 005°26'0 0.0
2018-Jan-21 20:28N 53°11' E 005°26'0 0.0
2018-Jan-21 19:58N 53°11' E 005°26'0 0.0
2018-Jan-21 19:28N 53°11' E 005°26'0 0.0
2018-Jan-21 18:58N 53°11' E 005°26'0 0.0
2018-Jan-21 18:28N 53°11' E 005°26'0 0.0
2018-Jan-21 17:58N 53°11' E 005°26'0 0.0
2018-Jan-21 17:28N 53°11' E 005°26'0 0.0
2018-Jan-21 16:58N 53°11' E 005°26'0 0.0
2018-Jan-21 16:28N 53°11' E 005°26'0 0.0
2018-Jan-21 15:58N 53°11' E 005°26'0 0.0
2018-Jan-21 15:28N 53°11' E 005°26'0 0.0
2018-Jan-21 14:58N 53°11' E 005°26'0 0.0
2018-Jan-21 14:28N 53°11' E 005°26'0 0.0
2018-Jan-21 13:58N 53°11' E 005°26'0 0.0
2018-Jan-21 13:28N 53°11' E 005°26'0 0.0
2018-Jan-21 12:58N 53°11' E 005°26'0 0.0
2018-Jan-21 12:28N 53°11' E 005°26'0 0.0
2018-Jan-21 11:58N 53°11' E 005°26'0 0.0
2018-Jan-21 11:28N 53°11' E 005°26'0 0.0
2018-Jan-21 10:58N 53°11' E 005°26'0 0.0
2018-Jan-21 10:28N 53°11' E 005°26'0 0.0
2018-Jan-21 09:58N 53°11' E 005°26'0 0.0
2018-Jan-21 09:28N 53°11' E 005°26'0 0.0
2018-Jan-21 08:58N 53°11' E 005°26'0 0.0
2018-Jan-21 08:28N 53°11' E 005°26'0 0.0
2018-Jan-21 07:58N 53°11' E 005°26'0 0.0
2018-Jan-21 07:28N 53°11' E 005°26'0 0.0
2018-Jan-21 06:58N 53°11' E 005°26'0 0.0
2018-Jan-21 06:28N 53°11' E 005°26'0 0.0
2018-Jan-21 05:58N 53°11' E 005°26'0 0.0
2018-Jan-21 05:25N 53°11' E 005°26'0 0.0
2018-Jan-21 04:58N 53°11' E 005°26'0 0.0
2018-Jan-21 04:22N 53°11' E 005°26'0 0.0
2018-Jan-21 03:58N 53°11' E 005°26'0 0.0
2018-Jan-21 03:28N 53°11' E 005°26'0 0.0
2018-Jan-21 02:55N 53°11' E 005°26'0 0.0
2018-Jan-21 02:25N 53°11' E 005°26'0 0.0
2018-Jan-21 01:58N 53°11' E 005°26'0 0.0
2018-Jan-21 01:28N 53°11' E 005°26'0 0.0
2018-Jan-21 00:52N 53°11' E 005°26'0 0.0
2018-Jan-21 00:28N 53°11' E 005°26'0 0.0
2018-Jan-20 23:58N 53°11' E 005°26'0 0.0
2018-Jan-20 23:30N 53°11' E 005°26'0 0.8
2018-Jan-20 23:00N 53°11' E 005°25'2 4.1
2018-Jan-20 22:30N 53°11' E 005°22'510.9
2018-Jan-20 22:00N 53°14' E 005°14'611.3
2018-Jan-20 21:31N 53°19' E 005°10'3 6.1
2018-Jan-20 21:00N 53°19' E 005°05'2 4.9
2018-Jan-20 20:30N 53°19' E 005°00'2 4.5
2018-Jan-20 20:01N 53°19' E 004°57'3 5.3
2018-Jan-20 19:25N 53°18' E 004°52'2 5.4
2018-Jan-20 18:57N 53°16' E 004°49'3 5.6
2018-Jan-20 18:29N 53°14' E 004°46'5 5.8
2018-Jan-20 17:41N 53°11' E 004°41'127 8.9
2018-Jan-20 03:27N 51°35' E 002°23'812.5
2018-Jan-20 02:49N 51°29' E 002°15'412.5
2018-Jan-20 02:30N 51°26' E 002°11'612.6
2018-Jan-20 02:01N 51°22' E 002°04'612.5
2018-Jan-20 01:30N 51°17' E 001°57'612.5
2018-Jan-20 01:00N 51°13' E 001°50'612.1
2018-Jan-20 00:30N 51°08' E 001°44'611.8
2018-Jan-20 00:00N 51°03' E 001°39'611.6
2018-Jan-19 23:30N 50°58' E 001°34'5910.4
2018-Jan-19 17:48N 50°25' E 000°17'510.8
2018-Jan-19 17:23N 50°23' E 000°10'410.7
2018-Jan-19 16:58N 50°22' E 000°03'510.2
2018-Jan-19 16:30N 50°24' W 000°04'510.7
2018-Jan-19 16:00N 50°26' W 000°11'510.6
2018-Jan-19 15:30N 50°28' W 000°19'510.6
2018-Jan-19 15:00N 50°31' W 000°26'510.7
2018-Jan-19 14:30N 50°33' W 000°34'510.2
2018-Jan-19 14:00N 50°35' W 000°41'5 9.9
2018-Jan-19 13:30N 50°38' W 000°48'510.1
2018-Jan-19 13:00N 50°40' W 000°55'5 9.8
2018-Jan-19 12:30N 50°43' W 001°01'612.0
2018-Jan-19 12:00N 50°46' W 001°09'611.7
2018-Jan-19 11:30N 50°49' W 001°17'611.2
2018-Jan-19 11:00N 50°53' W 001°24'2 4.7
2018-Jan-19 10:30N 50°54' W 001°26'0 0.0
2018-Jan-19 10:00N 50°54' W 001°26'0 0.0
2018-Jan-19 09:30N 50°54' W 001°26'0 0.0
2018-Jan-19 09:00N 50°54' W 001°26'0 0.0
2018-Jan-19 08:26N 50°54' W 001°26'0 0.0
2018-Jan-19 07:56N 50°54' W 001°26'0 0.0
2018-Jan-19 07:26N 50°54' W 001°26'0 0.0
2018-Jan-19 06:56N 50°54' W 001°26'0 0.0
2018-Jan-19 06:26N 50°54' W 001°26'0 0.0
2018-Jan-19 05:59N 50°54' W 001°26'0 0.0
2018-Jan-19 05:29N 50°54' W 001°26'0 0.0
2018-Jan-19 04:59N 50°54' W 001°26'0 0.0
2018-Jan-19 04:29N 50°54' W 001°26'0 0.0
2018-Jan-19 03:59N 50°54' W 001°26'0 0.0
2018-Jan-19 03:29N 50°54' W 001°26'0 0.0
2018-Jan-19 02:59N 50°54' W 001°26'0 0.0
2018-Jan-19 02:29N 50°54' W 001°26'0 0.0
2018-Jan-19 01:59N 50°54' W 001°26'0 0.0
2018-Jan-19 01:29N 50°54' W 001°26'0 0.0
2018-Jan-19 00:47N 50°54' W 001°26'0 0.0
2018-Jan-19 00:29N 50°54' W 001°26'0 0.0
2018-Jan-18 23:59N 50°54' W 001°26'0 0.0
2018-Jan-18 23:29N 50°54' W 001°26'0 0.0
2018-Jan-18 22:59N 50°54' W 001°26'0 0.0
2018-Jan-18 22:20N 50°54' W 001°26'0 0.0
2018-Jan-18 21:50N 50°54' W 001°26'0 0.0
2018-Jan-18 21:20N 50°54' W 001°26'0 0.0
2018-Jan-18 20:53N 50°54' W 001°26'0 0.0
2018-Jan-18 20:23N 50°54' W 001°26'0 0.0
2018-Jan-18 19:50N 50°54' W 001°26'0 0.0
2018-Jan-18 19:23N 50°54' W 001°26'0 0.0
2018-Jan-18 18:53N 50°54' W 001°26'0 0.0
2018-Jan-18 18:26N 50°54' W 001°26'0 0.0
2018-Jan-18 17:56N 50°54' W 001°26'0 0.0
2018-Jan-18 17:26N 50°54' W 001°26'0 0.0
2018-Jan-18 16:53N 50°54' W 001°26'0 0.0
2018-Jan-18 16:26N 50°54' W 001°26'0 0.0
2018-Jan-18 15:56N 50°54' W 001°26'0 0.0
2018-Jan-18 15:29N 50°54' W 001°26'0 0.0
2018-Jan-18 14:59N 50°54' W 001°26'0 0.0
2018-Jan-18 14:29N 50°54' W 001°26'0 0.0
2018-Jan-18 13:59N 50°54' W 001°26'0 0.0
2018-Jan-18 13:29N 50°54' W 001°26'0 0.0
2018-Jan-18 12:59N 50°54' W 001°26'0 0.0
2018-Jan-18 12:29N 50°54' W 001°26'0 0.0
2018-Jan-18 11:59N 50°54' W 001°26'0 0.0
2018-Jan-18 11:29N 50°54' W 001°26'0 0.0
2018-Jan-18 10:59N 50°54' W 001°26'0 0.0
2018-Jan-18 10:29N 50°54' W 001°26'0 0.0
2018-Jan-18 09:59N 50°54' W 001°26'0 0.0
2018-Jan-18 09:29N 50°54' W 001°26'0 0.0
2018-Jan-18 08:50N 50°54' W 001°26'0 0.0
2018-Jan-18 08:20N 50°54' W 001°26'0 0.0
2018-Jan-18 07:50N 50°54' W 001°26'0 0.0
2018-Jan-18 07:20N 50°54' W 001°26'0 0.0
2018-Jan-18 06:53N 50°54' W 001°26'0 0.0
2018-Jan-18 06:23N 50°54' W 001°26'0 0.0
2018-Jan-18 05:53N 50°54' W 001°26'0 0.0
2018-Jan-18 05:23N 50°54' W 001°26'0 0.0
2018-Jan-18 04:53N 50°54' W 001°26'0 0.0
2018-Jan-18 04:23N 50°54' W 001°26'0 0.0
2018-Jan-18 03:56N 50°54' W 001°26'0 0.0
2018-Jan-18 03:26N 50°54' W 001°26'0 0.0
2018-Jan-18 02:56N 50°54' W 001°26'0 0.0
2018-Jan-18 02:26N 50°54' W 001°26'0 0.0
2018-Jan-18 01:56N 50°54' W 001°26'0 0.0
2018-Jan-18 01:23N 50°54' W 001°26'0 0.0
2018-Jan-18 00:59N 50°54' W 001°26'0 0.0
2018-Jan-17 23:59N 50°54' W 001°26'0 0.0
2018-Jan-17 23:56N 50°54' W 001°26'  
Track history (hours):
 
Tides and Currents Weather Stations Pressure Air Temp Water Temp Dewpoint Dewpoint Depression Visibility Wind Speed Wind Dir Waves Ship Positions

Marietje Marsilla

Last reported at 2018-Jan-22 06:19 UTC. Time now 2018-Jan-22 06:39 UTC.
Position N 53°11' E 005°26'.

Length 126 m; draft 4.7 m.

Type: Cargo ship. MMSI: 246754000.

Date/timePositionNaut miles runAvg speedWind from/ knotsBaromVisibWave heightAir tempDewpointWater temp
2018-Jan-22 06:19N 53°11' E 005°26'0 0.0
2018-Jan-22 05:55N 53°11' E 005°26'0 0.0
2018-Jan-22 05:28N 53°11' E 005°26'0 0.0
2018-Jan-22 04:58N 53°11' E 005°26'0 0.0
2018-Jan-22 04:28N 53°11' E 005°26'0 0.0
2018-Jan-22 03:58N 53°11' E 005°26'0 0.0
2018-Jan-22 03:28N 53°11' E 005°26'0 0.0
2018-Jan-22 02:58N 53°11' E 005°26'0 0.0
2018-Jan-22 02:28N 53°11' E 005°26'0 0.0
2018-Jan-22 01:58N 53°11' E 005°26'0 0.0
2018-Jan-22 01:19N 53°11' E 005°26'0 0.0
2018-Jan-22 00:58N 53°11' E 005°26'0 0.0
2018-Jan-22 00:28N 53°11' E 005°26'0 0.0
2018-Jan-21 23:55N 53°11' E 005°26'0 0.0
2018-Jan-21 23:28N 53°11' E 005°26'0 0.0
2018-Jan-21 22:58N 53°11' E 005°26'0 0.0
2018-Jan-21 22:28N 53°11' E 005°26'0 0.0
2018-Jan-21 21:58N 53°11' E 005°26'0 0.0
2018-Jan-21 21:28N 53°11' E 005°26'0 0.0
2018-Jan-21 20:58N 53°11' E 005°26'0 0.0
2018-Jan-21 20:28N 53°11' E 005°26'0 0.0
2018-Jan-21 19:58N 53°11' E 005°26'0 0.0
2018-Jan-21 19:28N 53°11' E 005°26'0 0.0
2018-Jan-21 18:58N 53°11' E 005°26'0 0.0
2018-Jan-21 18:28N 53°11' E 005°26'0 0.0
2018-Jan-21 17:58N 53°11' E 005°26'0 0.0
2018-Jan-21 17:28N 53°11' E 005°26'0 0.0
2018-Jan-21 16:58N 53°11' E 005°26'0 0.0
2018-Jan-21 16:28N 53°11' E 005°26'0 0.0
2018-Jan-21 15:58N 53°11' E 005°26'0 0.0
2018-Jan-21 15:28N 53°11' E 005°26'0 0.0
2018-Jan-21 14:58N 53°11' E 005°26'0 0.0
2018-Jan-21 14:28N 53°11' E 005°26'0 0.0
2018-Jan-21 13:58N 53°11' E 005°26'0 0.0
2018-Jan-21 13:28N 53°11' E 005°26'0 0.0
2018-Jan-21 12:58N 53°11' E 005°26'0 0.0
2018-Jan-21 12:28N 53°11' E 005°26'0 0.0
2018-Jan-21 11:58N 53°11' E 005°26'0 0.0
2018-Jan-21 11:28N 53°11' E 005°26'0 0.0
2018-Jan-21 10:58N 53°11' E 005°26'0 0.0
2018-Jan-21 10:28N 53°11' E 005°26'0 0.0
2018-Jan-21 09:58N 53°11' E 005°26'0 0.0
2018-Jan-21 09:28N 53°11' E 005°26'0 0.0
2018-Jan-21 08:58N 53°11' E 005°26'0 0.0
2018-Jan-21 08:28N 53°11' E 005°26'0 0.0
2018-Jan-21 07:58N 53°11' E 005°26'0 0.0
2018-Jan-21 07:28N 53°11' E 005°26'0 0.0
2018-Jan-21 06:58N 53°11' E 005°26'0 0.0
2018-Jan-21 06:28N 53°11' E 005°26'0 0.0
2018-Jan-21 05:58N 53°11' E 005°26'0 0.0
2018-Jan-21 05:25N 53°11' E 005°26'0 0.0
2018-Jan-21 04:58N 53°11' E 005°26'0 0.0
2018-Jan-21 04:22N 53°11' E 005°26'0 0.0
2018-Jan-21 03:58N 53°11' E 005°26'0 0.0
2018-Jan-21 03:28N 53°11' E 005°26'0 0.0
2018-Jan-21 02:55N 53°11' E 005°26'0 0.0
2018-Jan-21 02:25N 53°11' E 005°26'0 0.0
2018-Jan-21 01:58N 53°11' E 005°26'0 0.0
2018-Jan-21 01:28N 53°11' E 005°26'0 0.0
2018-Jan-21 00:52N 53°11' E 005°26'0 0.0
2018-Jan-21 00:28N 53°11' E 005°26'0 0.0
2018-Jan-20 23:58N 53°11' E 005°26'0 0.0
2018-Jan-20 23:30N 53°11' E 005°26'0 0.8
2018-Jan-20 23:00N 53°11' E 005°25'2 4.1
2018-Jan-20 22:30N 53°11' E 005°22'510.9
2018-Jan-20 22:00N 53°14' E 005°14'611.3
2018-Jan-20 21:31N 53°19' E 005°10'3 6.1
2018-Jan-20 21:00N 53°19' E 005°05'2 4.9
2018-Jan-20 20:30N 53°19' E 005°00'2 4.5
2018-Jan-20 20:01N 53°19' E 004°57'3 5.3
2018-Jan-20 19:25N 53°18' E 004°52'2 5.4
2018-Jan-20 18:57N 53°16' E 004°49'3 5.6
2018-Jan-20 18:29N 53°14' E 004°46'5 5.8
2018-Jan-20 17:41N 53°11' E 004°41'127 8.9
2018-Jan-20 03:27N 51°35' E 002°23'812.5
2018-Jan-20 02:49N 51°29' E 002°15'412.5
2018-Jan-20 02:30N 51°26' E 002°11'612.6
2018-Jan-20 02:01N 51°22' E 002°04'612.5
2018-Jan-20 01:30N 51°17' E 001°57'612.5
2018-Jan-20 01:00N 51°13' E 001°50'612.1
2018-Jan-20 00:30N 51°08' E 001°44'611.8
2018-Jan-20 00:00N 51°03' E 001°39'611.6
2018-Jan-19 23:30N 50°58' E 001°34'5910.4
2018-Jan-19 17:48N 50°25' E 000°17'510.8
2018-Jan-19 17:23N 50°23' E 000°10'410.7
2018-Jan-19 16:58N 50°22' E 000°03'510.2
2018-Jan-19 16:30N 50°24' W 000°04'510.7
2018-Jan-19 16:00N 50°26' W 000°11'510.6
2018-Jan-19 15:30N 50°28' W 000°19'510.6
2018-Jan-19 15:00N 50°31' W 000°26'510.7
2018-Jan-19 14:30N 50°33' W 000°34'510.2
2018-Jan-19 14:00N 50°35' W 000°41'5 9.9
2018-Jan-19 13:30N 50°38' W 000°48'510.1
2018-Jan-19 13:00N 50°40' W 000°55'5 9.8
2018-Jan-19 12:30N 50°43' W 001°01'612.0
2018-Jan-19 12:00N 50°46' W 001°09'611.7
2018-Jan-19 11:30N 50°49' W 001°17'611.2
2018-Jan-19 11:00N 50°53' W 001°24'2 4.7
2018-Jan-19 10:30N 50°54' W 001°26'0 0.0
2018-Jan-19 10:00N 50°54' W 001°26'0 0.0
2018-Jan-19 09:30N 50°54' W 001°26'0 0.0
2018-Jan-19 09:00N 50°54' W 001°26'0 0.0
2018-Jan-19 08:26N 50°54' W 001°26'0 0.0
2018-Jan-19 07:56N 50°54' W 001°26'0 0.0
2018-Jan-19 07:26N 50°54' W 001°26'0 0.0
2018-Jan-19 06:56N 50°54' W 001°26'0 0.0
2018-Jan-19 06:26N 50°54' W 001°26'0 0.0
2018-Jan-19 05:59N 50°54' W 001°26'0 0.0
2018-Jan-19 05:29N 50°54' W 001°26'0 0.0
2018-Jan-19 04:59N 50°54' W 001°26'0 0.0
2018-Jan-19 04:29N 50°54' W 001°26'0 0.0
2018-Jan-19 03:59N 50°54' W 001°26'0 0.0
2018-Jan-19 03:29N 50°54' W 001°26'0 0.0
2018-Jan-19 02:59N 50°54' W 001°26'0 0.0
2018-Jan-19 02:29N 50°54' W 001°26'0 0.0
2018-Jan-19 01:59N 50°54' W 001°26'0 0.0
2018-Jan-19 01:29N 50°54' W 001°26'0 0.0
2018-Jan-19 00:47N 50°54' W 001°26'0 0.0
2018-Jan-19 00:29N 50°54' W 001°26'0 0.0
2018-Jan-18 23:59N 50°54' W 001°26'0 0.0
2018-Jan-18 23:29N 50°54' W 001°26'0 0.0
2018-Jan-18 22:59N 50°54' W 001°26'0 0.0
2018-Jan-18 22:20N 50°54' W 001°26'0 0.0
2018-Jan-18 21:50N 50°54' W 001°26'0 0.0
2018-Jan-18 21:20N 50°54' W 001°26'0 0.0
2018-Jan-18 20:53N 50°54' W 001°26'0 0.0
2018-Jan-18 20:23N 50°54' W 001°26'0 0.0
2018-Jan-18 19:50N 50°54' W 001°26'0 0.0
2018-Jan-18 19:23N 50°54' W 001°26'0 0.0
2018-Jan-18 18:53N 50°54' W 001°26'0 0.0
2018-Jan-18 18:26N 50°54' W 001°26'0 0.0
2018-Jan-18 17:56N 50°54' W 001°26'0 0.0
2018-Jan-18 17:26N 50°54' W 001°26'0 0.0
2018-Jan-18 16:53N 50°54' W 001°26'0 0.0
2018-Jan-18 16:26N 50°54' W 001°26'0 0.0
2018-Jan-18 15:56N 50°54' W 001°26'0 0.0
2018-Jan-18 15:29N 50°54' W 001°26'0 0.0
2018-Jan-18 14:59N 50°54' W 001°26'0 0.0
2018-Jan-18 14:29N 50°54' W 001°26'0 0.0
2018-Jan-18 13:59N 50°54' W 001°26'0 0.0
2018-Jan-18 13:29N 50°54' W 001°26'0 0.0
2018-Jan-18 12:59N 50°54' W 001°26'0 0.0
2018-Jan-18 12:29N 50°54' W 001°26'0 0.0
2018-Jan-18 11:59N 50°54' W 001°26'0 0.0
2018-Jan-18 11:29N 50°54' W 001°26'0 0.0
2018-Jan-18 10:59N 50°54' W 001°26'0 0.0
2018-Jan-18 10:29N 50°54' W 001°26'0 0.0
2018-Jan-18 09:59N 50°54' W 001°26'0 0.0
2018-Jan-18 09:29N 50°54' W 001°26'0 0.0
2018-Jan-18 08:50N 50°54' W 001°26'0 0.0
2018-Jan-18 08:20N 50°54' W 001°26'0 0.0
2018-Jan-18 07:50N 50°54' W 001°26'0 0.0
2018-Jan-18 07:20N 50°54' W 001°26'0 0.0
2018-Jan-18 06:53N 50°54' W 001°26'0 0.0
2018-Jan-18 06:23N 50°54' W 001°26'0 0.0
2018-Jan-18 05:53N 50°54' W 001°26'0 0.0
2018-Jan-18 05:23N 50°54' W 001°26'0 0.0
2018-Jan-18 04:53N 50°54' W 001°26'0 0.0
2018-Jan-18 04:23N 50°54' W 001°26'0 0.0
2018-Jan-18 03:56N 50°54' W 001°26'0 0.0
2018-Jan-18 03:26N 50°54' W 001°26'0 0.0
2018-Jan-18 02:56N 50°54' W 001°26'0 0.0
2018-Jan-18 02:26N 50°54' W 001°26'0 0.0
2018-Jan-18 01:56N 50°54' W 001°26'0 0.0
2018-Jan-18 01:23N 50°54' W 001°26'0 0.0
2018-Jan-18 00:59N 50°54' W 001°26'0 0.0
2018-Jan-17 23:59N 50°54' W 001°26'0 0.0
2018-Jan-17 23:56N 50°54' W 001°26'  

Dump ship's entire track history